Terminal Aerodrome Forecast
Issued by NWS Wilmington, OH

Current Version | Previous Version | Graphics & Text | Print | Product List | Glossary On
Versions: 1 2 3 4 5 6 7 8 9 10 11 12 13 14 15 16 17 18 19 20 21 22 23 24 25
246
FTUS41 KILN 111956 AAA
TAFCMH
TAF AMD
KCMH 111956Z 1120/1218 19008KT P6SM BKN100
     FM120700 26010G20KT P6SM BKN022
     FM120900 29012G22KT P6SM VCSH OVC014
     FM121200 31016G31KT P6SM VCSH OVC014
     FM121600 31016G31KT P6SM VCSH BKN022=

USA.gov is the U.S. government's official web portal to all federal, state and local government web resources and services.